Home   Weather   France   Saint-Étienne   Past weeks
Flag for France

Past Weather in Saint-Étienne, Auvergne-Rhône-Alpes, France — Yesterday and Last 2 Weeks

Currently: 39 °F. Clear. (Weather station: St-Etienne Boutheon, France). See more current weather

Past Weather in Saint-Étienne — Graph

°F

Saint-Étienne Temperature Yesterday

Maximum temperature yesterday: 48 °F (at 3:00 pm)
Minimum temperature yesterday: 23 °F (at 5:30 am)
Average temperature yesterday: 38 °F

High & Low Weather Summary for the Past Weeks

 TemperatureHumidityPressure
High72 °F (Apr 2, 3:30 pm)100% (Apr 11, 11:00 pm)30.36 "Hg (Apr 11, 11:00 pm)
Low19 °F (Apr 8, 6:30 am)17% (Apr 8, 3:30 pm)29.83 "Hg (Apr 11, 4:00 am)
Average43 °F61%30.12 "Hg
* Reported Apr 1 11:00 pm — Apr 16 11:00 pm, Saint-Étienne. Weather by CustomWeather, © 2021

Note: Actual official high and low records may vary slightly from our data, if they occured in-between our weather recording intervals... More about our weather records

Saint-Étienne Weather History for the Previous 24 Hours

Scroll right to see more
 ConditionsComfort  
Time TempWeatherWind HumidityBarometerVisibility
11:00 pm
Fri, Apr 16
43 °FMostly cloudy.12 mph53%30.12 "HgN/A
10:30 pm43 °FClear.12 mph53%30.12 "Hg10 mi
10:00 pm45 °FClear.10 mph49%30.12 "Hg10 mi
9:30 pm45 °FOvercast.15 mph46%30.09 "HgN/A
9:00 pm45 °FMostly cloudy.12 mph46%30.09 "HgN/A
8:30 pm45 °FClear.2 mph53%30.09 "Hg10 mi
8:00 pm45 °FSunny.2 mph49%30.09 "Hg10 mi
7:30 pm45 °FSunny.2 mph49%30.09 "Hg10 mi
7:00 pm45 °FMostly cloudy.6 mph57%30.09 "HgN/A
6:30 pm45 °FMostly cloudy.5 mph57%30.09 "HgN/A
6:00 pm45 °FMore clouds than sun.10 mph57%30.09 "HgN/A
5:30 pm45 °FLight rain. Mostly cloudy.12 mph61%30.09 "HgN/A
5:00 pm46 °FMostly cloudy.12 mph53%30.09 "HgN/A
4:30 pm46 °FMostly cloudy.10 mph50%30.09 "HgN/A
4:00 pm46 °FPartly sunny.13 mph46%30.09 "HgN/A
3:30 pm46 °FPartly sunny.9 mph46%30.09 "HgN/A
3:00 pm48 °FBroken clouds.6 mph46%30.09 "HgN/A
2:30 pm45 °FMostly cloudy.6 mph49%30.12 "HgN/A
2:00 pm45 °FMore clouds than sun.8 mph49%30.12 "HgN/A
1:30 pm45 °FPartly sunny.8 mph49%30.12 "HgN/A
1:00 pm43 °FMostly cloudy.9 mph57%30.12 "HgN/A
12:30 pm43 °FMostly cloudy.8 mph57%30.12 "HgN/A
12:00 pm43 °FPartly sunny.8 mph53%30.12 "HgN/A
11:30 am41 °FOvercast.6 mph57%30.12 "HgN/A
11:00 am41 °FMore clouds than sun.7 mph57%30.12 "HgN/A
10:30 am39 °FPassing clouds.3 mph65%30.12 "HgN/A
9:30 am36 °FPassing clouds.5 mph70%30.15 "HgN/A
9:00 am34 °FPassing clouds.7 mph70%30.12 "HgN/A
8:30 am34 °FSunny.1 mph70%30.12 "Hg10 mi
8:00 am28 °FSunny.No wind80%30.12 "Hg10 mi
7:30 am27 °FSunny.2 mph86%30.12 "Hg10 mi
7:00 am25 °FSunny.3 mph86%30.12 "Hg10 mi
6:30 am23 °FClear.2 mph86%30.12 "Hg10 mi
6:00 am25 °FClear.3 mph93%30.12 "Hg10 mi
5:30 am23 °FClear.No wind86%30.12 "Hg10 mi
5:00 am25 °FClear.3 mph93%30.12 "Hg10 mi
4:30 am27 °FClear.3 mph86%30.12 "Hg10 mi
3:30 am28 °FClear.2 mph80%30.12 "Hg10 mi
3:00 am27 °FClear.3 mph86%30.12 "Hg10 mi
2:30 am27 °FClear.2 mph80%30.15 "Hg10 mi
2:00 am28 °FClear.2 mph80%30.15 "Hg10 mi
1:30 am32 °FClear.2 mph75%30.15 "Hg10 mi
1:00 am34 °FClear.2 mph70%30.15 "Hg10 mi
12:30 am34 °FClear.1 mph65%30.15 "Hg10 mi
12:00 am36 °FClear.2 mph60%30.15 "Hg10 mi
Weather by CustomWeather, © 2021

See weather overview